createdAt,value
2023-05-10T00:00:03.305Z,2.00
2023-05-10T00:02:41.350Z,2.07
2023-05-10T00:05:09.278Z,2.40
2023-05-10T00:07:36.651Z,2.30
2023-05-10T00:10:04.085Z,1.90
2023-05-10T00:12:32.767Z,2.63
2023-05-10T00:15:00.163Z,1.93
2023-05-10T00:17:27.513Z,2.20
2023-05-10T00:19:55.228Z,2.20
2023-05-10T00:22:22.818Z,2.20
2023-05-10T00:24:50.224Z,2.33
2023-05-10T00:27:17.576Z,2.17
2023-05-10T00:29:46.337Z,2.37
2023-05-10T00:32:14.896Z,2.03
2023-05-10T00:34:42.497Z,2.10
2023-05-10T00:37:10.008Z,2.13
2023-05-10T00:39:37.380Z,2.60
2023-05-10T00:42:05.388Z,1.93
2023-05-10T00:44:33.088Z,2.03
2023-05-10T00:47:01.941Z,2.00
2023-05-10T00:49:29.967Z,2.20
2023-05-10T00:51:57.424Z,2.40
2023-05-10T00:54:24.943Z,2.10
2023-05-10T00:56:52.826Z,2.10
2023-05-10T00:59:20.356Z,1.77
2023-05-10T01:01:47.922Z,2.50
2023-05-10T01:04:17.208Z,2.40
2023-05-10T01:06:44.877Z,2.07
2023-05-10T01:09:12.591Z,1.97
2023-05-10T01:11:40.656Z,1.97
2023-05-10T01:14:08.138Z,2.23
2023-05-10T01:16:38.196Z,2.00
2023-05-10T01:19:06.391Z,2.30
2023-05-10T01:21:40.729Z,2.27
2023-05-10T01:24:14.504Z,2.10
2023-05-10T01:27:01.566Z,2.07
2023-05-10T01:29:44.240Z,2.10
2023-05-10T01:32:29.950Z,2.10
2023-05-10T01:35:00.913Z,2.40
2023-05-10T01:37:33.171Z,2.00
2023-05-10T01:40:03.381Z,2.03
2023-05-10T01:42:34.689Z,2.00
2023-05-10T01:45:04.494Z,2.50
2023-05-10T01:47:37.717Z,2.10
2023-05-10T01:50:06.650Z,2.30
2023-05-10T01:52:35.518Z,2.03
2023-05-10T01:55:04.594Z,2.13
2023-05-10T01:57:34.811Z,2.10
2023-05-10T02:00:03.810Z,1.80
2023-05-10T02:02:46.889Z,1.97
2023-05-10T02:05:15.368Z,2.20
2023-05-10T02:07:43.892Z,2.03
2023-05-10T02:10:11.904Z,2.10
2023-05-10T02:12:41.409Z,2.67
2023-05-10T02:15:09.601Z,1.90
2023-05-10T02:17:37.538Z,2.07
2023-05-10T02:20:09.634Z,2.00
2023-05-10T02:22:37.442Z,1.90
2023-05-10T02:25:05.313Z,1.80
2023-05-10T02:27:33.486Z,2.07
2023-05-10T02:30:01.177Z,2.00
2023-05-10T02:32:29.405Z,1.90
2023-05-10T02:34:58.266Z,1.80
2023-05-10T02:37:27.145Z,2.07
2023-05-10T02:39:56.021Z,2.00
2023-05-10T02:42:25.894Z,2.30
2023-05-10T02:44:54.820Z,2.20
2023-05-10T02:47:22.395Z,1.90
2023-05-10T02:49:49.920Z,2.20
2023-05-10T02:52:20.909Z,1.97
2023-05-10T02:54:51.659Z,1.60
2023-05-10T02:57:22.031Z,1.87
2023-05-10T02:59:49.417Z,2.63
2023-05-10T03:02:16.862Z,2.33
2023-05-10T03:04:44.312Z,2.10
2023-05-10T03:07:12.049Z,2.40
2023-05-10T03:09:39.486Z,1.90
2023-05-10T03:12:09.961Z,2.20
2023-05-10T03:14:44.416Z,2.07
2023-05-10T03:17:13.319Z,2.07
2023-05-10T03:19:45.302Z,1.87
2023-05-10T03:22:14.840Z,2.00
2023-05-10T03:24:43.112Z,2.43
2023-05-10T03:27:12.403Z,2.00
2023-05-10T03:29:40.427Z,2.33
2023-05-10T03:32:08.009Z,2.00
2023-05-10T03:34:35.461Z,6.07
2023-05-10T03:37:03.965Z,4.50
2023-05-10T03:39:32.967Z,3.10
2023-05-10T03:42:01.995Z,2.60
2023-05-10T03:44:34.150Z,2.30
2023-05-10T03:47:01.659Z,2.27
2023-05-10T03:49:29.211Z,2.50
2023-05-10T03:51:56.667Z,2.50
2023-05-10T03:54:24.141Z,2.20
2023-05-10T03:56:51.784Z,2.17
2023-05-10T03:59:21.015Z,2.07
2023-05-10T04:01:49.770Z,1.80
2023-05-10T04:04:19.428Z,2.13
2023-05-10T04:06:49.688Z,2.70
2023-05-10T04:09:17.534Z,2.33
2023-05-10T04:11:45.005Z,2.50
2023-05-10T04:14:12.385Z,2.60
2023-05-10T04:16:39.786Z,1.93
2023-05-10T04:19:08.503Z,2.00
2023-05-10T04:21:36.038Z,5.90
2023-05-10T04:24:03.843Z,8.73
2023-05-10T04:26:31.249Z,18.83
2023-05-10T04:28:58.586Z,16.27
2023-05-10T04:31:27.008Z,10.17
2023-05-10T04:33:54.384Z,17.30
2023-05-10T04:36:23.435Z,4.23
2023-05-10T04:38:50.786Z,3.63
2023-05-10T04:41:18.137Z,2.90
2023-05-10T04:43:45.973Z,3.10
2023-05-10T04:46:14.739Z,2.60
2023-05-10T04:48:42.120Z,5.37
2023-05-10T04:51:09.758Z,4.50
2023-05-10T04:53:38.646Z,4.30
2023-05-10T04:56:06.363Z,5.00
2023-05-10T04:58:34.354Z,3.97
2023-05-10T05:01:06.939Z,3.67
2023-05-10T05:03:34.691Z,2.53
2023-05-10T05:06:02.297Z,3.73
2023-05-10T05:08:29.975Z,2.80
2023-05-10T05:11:00.360Z,2.33
2023-05-10T05:13:27.751Z,2.60
2023-05-10T05:15:55.584Z,2.43
2023-05-10T05:18:22.983Z,2.87
2023-05-10T05:20:50.570Z,3.27
2023-05-10T05:23:19.136Z,3.60
2023-05-10T05:25:46.502Z,3.47
2023-05-10T05:28:15.165Z,4.13
2023-05-10T05:30:42.956Z,4.90
2023-05-10T05:33:10.376Z,5.37
2023-05-10T05:35:37.754Z,6.57
2023-05-10T05:38:05.102Z,5.30
2023-05-10T05:40:32.568Z,4.40
2023-05-10T05:42:59.892Z,3.90
2023-05-10T05:45:28.652Z,3.13
2023-05-10T05:47:56.895Z,3.10
2023-05-10T05:50:24.272Z,2.20
2023-05-10T05:52:52.118Z,2.00
2023-05-10T05:55:19.778Z,1.67
2023-05-10T05:57:47.325Z,2.03
2023-05-10T06:00:15.188Z,2.33
2023-05-10T06:02:43.915Z,3.37
2023-05-10T06:05:11.332Z,2.33
2023-05-10T06:07:38.684Z,2.87
2023-05-10T06:10:06.785Z,2.00
2023-05-10T06:12:34.407Z,1.60
2023-05-10T06:15:01.826Z,1.80
2023-05-10T06:17:29.720Z,1.90
2023-05-10T06:19:58.390Z,1.97
2023-05-10T06:22:25.861Z,1.50
2023-05-10T06:24:53.177Z,1.73
2023-05-10T06:27:20.544Z,1.77
2023-05-10T06:29:49.182Z,1.50
2023-05-10T06:32:18.044Z,2.20
2023-05-10T06:34:45.609Z,2.10
2023-05-10T06:37:14.287Z,1.80
2023-05-10T06:39:41.633Z,1.80
2023-05-10T06:42:08.989Z,2.00
2023-05-10T06:44:36.767Z,2.20
2023-05-10T06:47:04.167Z,2.00
2023-05-10T06:49:31.532Z,2.30
2023-05-10T06:51:58.893Z,2.60
2023-05-10T06:54:27.557Z,2.60
2023-05-10T06:56:55.131Z,2.43
2023-05-10T06:59:22.661Z,3.03
2023-05-10T07:01:50.178Z,3.83
2023-05-10T07:04:18.542Z,2.50
2023-05-10T07:06:47.186Z,2.60
2023-05-10T07:09:15.261Z,2.10
2023-05-10T07:11:43.990Z,2.57
2023-05-10T07:14:11.342Z,2.30
2023-05-10T07:16:38.835Z,2.50
2023-05-10T07:19:07.517Z,2.00
2023-05-10T07:21:36.164Z,1.87
2023-05-10T07:24:03.895Z,1.70
2023-05-10T07:26:31.253Z,1.90
2023-05-10T07:28:59.951Z,2.10
2023-05-10T07:31:27.342Z,2.13
2023-05-10T07:33:54.792Z,1.80
2023-05-10T07:36:22.372Z,1.60
2023-05-10T07:38:50.436Z,1.73
2023-05-10T07:41:17.791Z,1.63
2023-05-10T07:43:45.155Z,1.80
2023-05-10T07:46:13.883Z,2.10
2023-05-10T07:48:41.424Z,1.77
2023-05-10T07:51:10.375Z,2.00
2023-05-10T07:53:37.749Z,1.80
2023-05-10T07:56:20.058Z,1.63
2023-05-10T07:58:47.396Z,1.70
2023-05-10T08:01:16.051Z,1.63
2023-05-10T08:03:43.504Z,2.17
2023-05-10T08:06:10.920Z,2.20
2023-05-10T08:08:38.308Z,1.90
2023-05-10T08:11:07.085Z,2.20
2023-05-10T08:13:34.984Z,1.60
2023-05-10T08:16:02.502Z,2.20
2023-05-10T08:18:31.558Z,2.07
2023-05-10T08:20:58.949Z,1.97
2023-05-10T08:23:27.146Z,1.90
2023-05-10T08:25:54.505Z,1.83
2023-05-10T08:28:21.895Z,2.10
2023-05-10T08:30:49.272Z,2.03
2023-05-10T08:33:16.678Z,1.97
2023-05-10T08:35:45.342Z,1.93
2023-05-10T08:38:13.651Z,1.70
2023-05-10T08:40:43.198Z,2.20
2023-05-10T08:43:11.189Z,1.57
2023-05-10T08:45:39.431Z,1.77
2023-05-10T08:48:07.288Z,2.00
2023-05-10T08:50:37.401Z,1.90
2023-05-10T08:53:07.874Z,2.00
2023-05-10T08:55:37.602Z,2.17
2023-05-10T08:58:05.517Z,2.20
2023-05-10T09:00:33.194Z,2.23
2023-05-10T09:03:00.804Z,1.97
2023-05-10T09:05:28.434Z,2.03
2023-05-10T09:07:55.850Z,1.90
2023-05-10T09:10:26.957Z,2.10
2023-05-10T09:12:55.990Z,1.93
2023-05-10T09:15:24.404Z,2.00
2023-05-10T09:17:51.891Z,1.93
2023-05-10T09:20:19.431Z,1.87
2023-05-10T09:22:46.956Z,1.90
2023-05-10T09:25:15.048Z,2.20
2023-05-10T09:27:46.098Z,2.07
2023-05-10T09:30:17.395Z,2.30
2023-05-10T09:32:45.742Z,1.90
2023-05-10T09:35:14.160Z,2.27
2023-05-10T09:37:43.453Z,2.20
2023-05-10T09:40:13.734Z,2.10
2023-05-10T09:42:42.319Z,2.07
2023-05-10T09:45:11.531Z,2.20
2023-05-10T09:47:39.127Z,2.37
2023-05-10T09:50:07.223Z,2.00
2023-05-10T09:52:47.748Z,2.20
2023-05-10T09:55:15.501Z,2.17
2023-05-10T09:57:43.057Z,2.70
2023-05-10T10:00:12.227Z,2.33
2023-05-10T10:02:42.927Z,2.00
2023-05-10T10:05:10.593Z,1.93
2023-05-10T10:07:38.171Z,2.13
2023-05-10T10:10:06.325Z,1.90
2023-05-10T10:12:33.743Z,2.10
2023-05-10T10:15:02.192Z,2.37
2023-05-10T10:17:32.487Z,2.13
2023-05-10T10:20:00.193Z,2.60
2023-05-10T10:22:27.576Z,2.63
2023-05-10T10:24:56.275Z,2.40
2023-05-10T10:27:27.114Z,2.67
2023-05-10T10:30:05.755Z,2.60
2023-05-10T10:32:44.281Z,2.57
2023-05-10T10:35:11.655Z,2.50
2023-05-10T10:37:46.062Z,2.40
2023-05-10T10:40:29.593Z,2.20
2023-05-10T10:42:58.042Z,2.40
2023-05-10T10:45:26.363Z,2.47
2023-05-10T10:48:11.633Z,2.90
2023-05-10T10:50:47.546Z,2.63
2023-05-10T10:53:15.109Z,2.67
2023-05-10T10:55:47.897Z,2.73
2023-05-10T10:58:30.569Z,2.60
2023-05-10T11:01:11.035Z,2.83
2023-05-10T11:03:38.435Z,2.50
2023-05-10T11:06:07.211Z,2.80
2023-05-10T11:08:37.484Z,2.73
2023-05-10T11:11:08.095Z,2.63
2023-05-10T11:13:36.625Z,2.50
2023-05-10T11:16:17.697Z,2.47
2023-05-10T11:19:02.591Z,2.67
2023-05-10T11:21:31.852Z,2.87
2023-05-10T11:23:59.707Z,2.70
2023-05-10T11:26:28.297Z,2.70
2023-05-10T11:28:57.245Z,2.27
2023-05-10T11:31:27.485Z,2.73
2023-05-10T11:33:55.738Z,2.97
2023-05-10T11:36:23.969Z,2.70
2023-05-10T11:38:52.638Z,2.80
2023-05-10T11:41:22.720Z,2.90
2023-05-10T11:43:51.474Z,2.67
2023-05-10T11:46:21.373Z,2.70
2023-05-10T11:48:49.289Z,3.00
2023-05-10T11:51:16.650Z,2.40
2023-05-10T11:53:44.012Z,2.47
2023-05-10T11:56:13.173Z,3.13
2023-05-10T11:58:41.289Z,2.63
2023-05-10T12:01:09.962Z,2.87
2023-05-10T12:03:37.766Z,2.63
2023-05-10T12:06:05.589Z,2.67
2023-05-10T12:08:32.937Z,2.47
2023-05-10T12:11:07.135Z,2.70
2023-05-10T12:13:39.114Z,2.77
2023-05-10T12:16:14.561Z,2.70
2023-05-10T12:18:42.248Z,2.50
2023-05-10T12:21:11.253Z,2.57
2023-05-10T12:23:38.763Z,2.70
2023-05-10T12:26:06.717Z,3.20
2023-05-10T12:28:34.418Z,2.70
2023-05-10T12:31:03.581Z,2.70
2023-05-10T12:33:37.577Z,2.53
2023-05-10T12:36:06.420Z,2.70
2023-05-10T12:38:35.023Z,2.90
2023-05-10T12:41:03.101Z,2.53
2023-05-10T12:43:30.736Z,2.70
2023-05-10T12:45:58.325Z,2.40
2023-05-10T12:48:27.056Z,2.60
2023-05-10T12:50:54.442Z,2.27
2023-05-10T12:53:21.784Z,2.40
2023-05-10T12:55:49.129Z,2.30
2023-05-10T12:58:31.577Z,2.57
2023-05-10T13:01:03.064Z,2.53
2023-05-10T13:03:31.838Z,2.60
2023-05-10T13:05:59.241Z,2.50
2023-05-10T13:08:26.933Z,2.80
2023-05-10T13:10:54.328Z,2.50
2023-05-10T13:13:21.679Z,2.73
2023-05-10T13:15:49.023Z,3.00
2023-05-10T13:18:16.447Z,2.57
2023-05-10T13:20:45.250Z,2.73
2023-05-10T13:23:12.634Z,2.83
2023-05-10T13:25:40.090Z,2.80
2023-05-10T13:28:07.511Z,3.03
2023-05-10T13:30:34.852Z,4.13
2023-05-10T13:33:02.270Z,3.87
2023-05-10T13:35:29.653Z,3.70
2023-05-10T13:37:58.673Z,3.50
2023-05-10T13:40:27.193Z,3.50
2023-05-10T13:42:54.924Z,3.80
2023-05-10T13:45:22.448Z,3.63
2023-05-10T13:47:50.406Z,3.60
2023-05-10T13:50:17.881Z,3.10
2023-05-10T13:52:45.394Z,3.20
2023-05-10T13:55:14.475Z,3.50
2023-05-10T13:57:41.871Z,3.80
2023-05-10T14:00:10.603Z,3.63
2023-05-10T14:02:38.123Z,3.60
2023-05-10T14:05:05.968Z,3.63
2023-05-10T14:07:35.664Z,3.33
2023-05-10T14:10:03.770Z,3.63
2023-05-10T14:12:33.060Z,3.73
2023-05-10T14:15:00.473Z,3.77
2023-05-10T14:17:27.858Z,3.30
2023-05-10T14:19:55.331Z,2.83
2023-05-10T14:22:23.551Z,2.63
2023-05-10T14:24:51.102Z,2.63
2023-05-10T14:27:18.936Z,2.83
2023-05-10T14:29:47.701Z,2.37
2023-05-10T14:32:15.192Z,3.00
2023-05-10T14:34:42.667Z,3.70
2023-05-10T14:37:11.836Z,3.00
2023-05-10T14:39:39.229Z,3.23
2023-05-10T14:42:06.663Z,3.23
2023-05-10T14:44:34.024Z,3.30
2023-05-10T14:47:03.365Z,3.10
2023-05-10T14:49:30.747Z,3.47
2023-05-10T14:51:59.110Z,2.83
2023-05-10T14:54:26.866Z,2.93
2023-05-10T14:56:54.203Z,2.80
2023-05-10T14:59:22.185Z,3.13
2023-05-10T15:01:49.935Z,3.10
2023-05-10T15:04:18.902Z,3.07
2023-05-10T15:06:46.646Z,3.40
2023-05-10T15:09:13.977Z,3.57
2023-05-10T15:11:41.665Z,2.90
2023-05-10T15:14:08.997Z,3.40
2023-05-10T15:16:36.519Z,3.67
2023-05-10T15:19:04.095Z,2.93
2023-05-10T15:21:38.558Z,2.80
2023-05-10T15:24:06.090Z,3.13
2023-05-10T15:26:33.614Z,3.40
2023-05-10T15:29:01.051Z,3.40
2023-05-10T15:31:28.994Z,3.40
2023-05-10T15:33:59.305Z,3.27
2023-05-10T15:36:26.664Z,3.17
2023-05-10T15:38:56.824Z,2.70
2023-05-10T15:41:24.531Z,3.07
2023-05-10T15:43:51.886Z,3.20
2023-05-10T15:46:19.360Z,3.50
2023-05-10T15:48:46.738Z,3.33
2023-05-10T15:51:14.522Z,3.70
2023-05-10T15:53:52.838Z,3.20
2023-05-10T15:56:26.650Z,2.97
2023-05-10T15:58:54.105Z,2.60
2023-05-10T16:01:21.925Z,2.97
2023-05-10T16:03:49.322Z,3.47
2023-05-10T16:06:17.015Z,3.30
2023-05-10T16:08:44.577Z,3.00
2023-05-10T16:11:12.164Z,3.00
2023-05-10T16:13:42.330Z,2.90
2023-05-10T16:16:09.764Z,3.37
2023-05-10T16:18:37.316Z,3.70
2023-05-10T16:21:04.748Z,3.00
2023-05-10T16:23:32.149Z,3.20
2023-05-10T16:26:00.878Z,3.07
2023-05-10T16:28:28.374Z,2.90
2023-05-10T16:30:57.046Z,3.07
2023-05-10T16:33:24.372Z,3.20
2023-05-10T16:35:51.737Z,3.07
2023-05-10T16:38:19.084Z,3.00
2023-05-10T16:40:46.441Z,3.30
2023-05-10T16:43:13.851Z,3.10
2023-05-10T16:45:42.211Z,2.73
2023-05-10T16:48:10.890Z,2.83
2023-05-10T16:50:38.241Z,3.10
2023-05-10T16:53:05.593Z,3.27
2023-05-10T16:55:33.213Z,2.77
2023-05-10T16:58:02.773Z,2.70
2023-05-10T17:00:30.303Z,3.27
2023-05-10T17:02:57.778Z,2.70
2023-05-10T17:05:26.880Z,2.83
2023-05-10T17:07:54.599Z,2.90
2023-05-10T17:10:22.357Z,3.30
2023-05-10T17:12:50.881Z,2.70
2023-05-10T17:15:19.215Z,3.10
2023-05-10T17:17:47.566Z,2.67
2023-05-10T17:20:14.950Z,2.67
2023-05-10T17:22:43.687Z,3.00
2023-05-10T17:25:11.250Z,3.23
2023-05-10T17:27:38.633Z,3.13
2023-05-10T17:30:06.734Z,3.10
2023-05-10T17:32:34.109Z,2.50
2023-05-10T17:35:01.539Z,2.90
2023-05-10T17:37:28.883Z,3.00
2023-05-10T17:39:57.629Z,2.70
2023-05-10T17:42:25.000Z,3.07
2023-05-10T17:44:52.395Z,2.70
2023-05-10T17:47:20.602Z,2.90
2023-05-10T17:49:48.182Z,3.23
2023-05-10T17:52:15.510Z,2.70
2023-05-10T17:54:42.973Z,2.33
2023-05-10T17:57:11.623Z,2.33
2023-05-10T17:59:38.965Z,2.47
2023-05-10T18:02:06.298Z,2.33
2023-05-10T18:04:34.057Z,2.33
2023-05-10T18:07:01.958Z,2.23
2023-05-10T18:09:29.736Z,2.20
2023-05-10T18:11:57.326Z,2.50
2023-05-10T18:14:40.008Z,2.10
2023-05-10T18:17:08.663Z,2.07
2023-05-10T18:19:36.037Z,1.83
2023-05-10T18:22:03.501Z,1.87
2023-05-10T18:24:38.956Z,2.20
2023-05-10T18:27:07.952Z,1.97
2023-05-10T18:29:37.128Z,2.03
2023-05-10T18:32:04.950Z,2.03
2023-05-10T18:34:32.310Z,2.00
2023-05-10T18:37:00.029Z,1.90
2023-05-10T18:39:27.388Z,1.73
2023-05-10T18:41:54.761Z,1.70
2023-05-10T18:44:25.838Z,1.50
2023-05-10T18:46:54.540Z,1.80
2023-05-10T18:49:21.910Z,2.00
2023-05-10T18:51:49.272Z,1.90
2023-05-10T18:54:16.830Z,1.90
2023-05-10T18:56:45.320Z,2.00
2023-05-10T18:59:12.910Z,1.87
2023-05-10T19:01:41.272Z,1.80
2023-05-10T19:04:10.039Z,1.93
2023-05-10T19:06:37.625Z,1.80
2023-05-10T19:09:05.218Z,1.90
2023-05-10T19:11:34.409Z,1.90
2023-05-10T19:14:02.306Z,1.70
2023-05-10T19:16:30.375Z,2.00
2023-05-10T19:18:58.057Z,1.90
2023-05-10T19:21:27.023Z,1.67
2023-05-10T19:23:55.232Z,2.33
2023-05-10T19:26:23.325Z,1.80
2023-05-10T19:28:51.404Z,1.80
2023-05-10T19:31:18.788Z,2.00
2023-05-10T19:33:46.984Z,1.70
2023-05-10T19:36:14.372Z,1.90
2023-05-10T19:38:43.067Z,1.93
2023-05-10T19:41:11.401Z,1.90
2023-05-10T19:43:39.961Z,1.90
2023-05-10T19:46:08.909Z,1.97
2023-05-10T19:48:36.447Z,1.80
2023-05-10T19:51:05.648Z,2.40
2023-05-10T19:53:34.460Z,2.27
2023-05-10T19:56:07.109Z,2.20
2023-05-10T19:58:34.878Z,2.37
2023-05-10T20:01:02.465Z,2.27
2023-05-10T20:03:30.157Z,2.47
2023-05-10T20:05:57.521Z,2.33
2023-05-10T20:08:25.338Z,2.30
2023-05-10T20:10:53.028Z,2.60
2023-05-10T20:13:21.870Z,2.00
2023-05-10T20:15:49.462Z,2.40
2023-05-10T20:18:16.848Z,1.93
2023-05-10T20:20:44.211Z,2.03
2023-05-10T20:23:11.596Z,1.70
2023-05-10T20:25:39.095Z,2.10
2023-05-10T20:28:08.404Z,2.03
2023-05-10T20:30:37.175Z,2.27
2023-05-10T20:33:04.650Z,2.30
2023-05-10T20:35:32.962Z,11.33
2023-05-10T20:38:01.999Z,13.97
2023-05-10T20:40:29.373Z,3.17
2023-05-10T20:42:56.717Z,2.70
2023-05-10T20:45:24.138Z,2.07
2023-05-10T20:47:53.774Z,2.37
2023-05-10T20:50:21.249Z,2.30
2023-05-10T20:52:50.910Z,2.17
2023-05-10T20:55:18.413Z,2.50
2023-05-10T20:57:47.031Z,2.20
2023-05-10T21:00:14.906Z,2.27
2023-05-10T21:02:43.206Z,2.30
2023-05-10T21:05:12.099Z,2.20
2023-05-10T21:07:39.744Z,2.30
2023-05-10T21:10:08.102Z,2.27
2023-05-10T21:12:35.489Z,2.50
2023-05-10T21:15:03.699Z,2.70
2023-05-10T21:17:31.113Z,2.27
2023-05-10T21:19:58.503Z,2.80
2023-05-10T21:22:27.202Z,3.00
2023-05-10T21:24:54.607Z,2.50
2023-05-10T21:27:22.021Z,2.20
2023-05-10T21:29:49.358Z,2.50
2023-05-10T21:32:16.750Z,2.70
2023-05-10T21:34:44.101Z,2.70
2023-05-10T21:37:11.479Z,2.63
2023-05-10T21:39:40.372Z,2.70
2023-05-10T21:42:07.749Z,2.77
2023-05-10T21:44:35.074Z,2.83
2023-05-10T21:47:02.460Z,2.50
2023-05-10T21:49:29.792Z,2.70
2023-05-10T21:51:57.145Z,2.47
2023-05-10T21:54:24.477Z,2.93
2023-05-10T21:56:53.382Z,2.90
2023-05-10T21:59:21.381Z,2.80
2023-05-10T22:01:48.929Z,2.93
2023-05-10T22:04:16.669Z,3.00
2023-05-10T22:06:44.085Z,3.20
2023-05-10T22:09:11.576Z,3.30
2023-05-10T22:11:38.925Z,2.90
2023-05-10T22:14:07.580Z,2.73
2023-05-10T22:16:34.997Z,2.53
2023-05-10T22:19:02.519Z,3.23
2023-05-10T22:21:30.005Z,3.17
2023-05-10T22:23:59.027Z,3.50
2023-05-10T22:26:26.739Z,3.13
2023-05-10T22:28:54.085Z,3.20
2023-05-10T22:31:22.853Z,2.80
2023-05-10T22:33:50.270Z,3.20
2023-05-10T22:36:17.615Z,2.93
2023-05-10T22:38:44.962Z,2.60
2023-05-10T22:41:12.305Z,2.30
2023-05-10T22:43:39.634Z,2.53
2023-05-10T22:46:07.004Z,2.70
2023-05-10T22:48:36.425Z,2.87
2023-05-10T22:51:03.811Z,2.60
2023-05-10T22:53:31.150Z,2.80
2023-05-10T22:55:58.562Z,2.63
2023-05-10T22:58:26.003Z,3.13
2023-05-10T23:00:54.265Z,2.80
2023-05-10T23:03:21.799Z,2.80
2023-05-10T23:05:50.554Z,2.47
2023-05-10T23:08:17.909Z,2.47
2023-05-10T23:10:45.246Z,2.40
2023-05-10T23:13:12.948Z,2.53
2023-05-10T23:15:40.500Z,2.43
2023-05-10T23:18:09.569Z,2.70
2023-05-10T23:20:37.043Z,2.20
2023-05-10T23:23:05.712Z,2.50
2023-05-10T23:25:33.081Z,2.60
2023-05-10T23:28:00.430Z,2.87
2023-05-10T23:30:27.756Z,2.57
2023-05-10T23:32:55.189Z,2.73
2023-05-10T23:35:22.607Z,2.40
2023-05-10T23:37:50.025Z,2.27
2023-05-10T23:40:19.052Z,2.63
2023-05-10T23:42:46.611Z,2.40
2023-05-10T23:45:14.006Z,2.37
2023-05-10T23:47:41.516Z,2.60
2023-05-10T23:50:09.387Z,2.67
2023-05-10T23:52:36.729Z,2.60
2023-05-10T23:55:04.255Z,3.13
2023-05-10T23:57:32.967Z,2.70
